createdAt,value
2018-05-15T00:02:16.485Z,98425.44
2018-05-15T00:04:45.310Z,98424.95
2018-05-15T00:07:13.668Z,98433.13
2018-05-15T00:09:41.988Z,98433.84
2018-05-15T00:12:10.292Z,98434.44
2018-05-15T00:14:38.573Z,98432.09
2018-05-15T00:17:06.843Z,98434.63
2018-05-15T00:19:35.167Z,98433.30
2018-05-15T00:22:03.457Z,98438.29
2018-05-15T00:24:31.762Z,98436.88
2018-05-15T00:27:00.106Z,98434.44
2018-05-15T00:29:28.424Z,98431.08
2018-05-15T00:31:56.717Z,98432.12
2018-05-15T00:34:24.999Z,98433.54
2018-05-15T00:36:53.273Z,98434.30
2018-05-15T00:39:21.569Z,98430.95
2018-05-15T00:41:49.872Z,98434.58
2018-05-15T00:44:18.274Z,98430.70
2018-05-15T00:46:46.554Z,98427.78
2018-05-15T00:49:14.799Z,98424.98
2018-05-15T00:51:43.121Z,98432.86
2018-05-15T00:54:11.432Z,98433.51
2018-05-15T00:56:39.762Z,98432.94
2018-05-15T00:59:08.035Z,98431.63
2018-05-15T01:01:36.672Z,98424.80
2018-05-15T01:04:05.030Z,98421.27
2018-05-15T01:06:33.326Z,98424.73
2018-05-15T01:09:01.642Z,98423.92
2018-05-15T01:11:29.941Z,98417.18
2018-05-15T01:13:58.235Z,98418.91
2018-05-15T01:16:26.515Z,98414.36
2018-05-15T01:18:54.879Z,98413.11
2018-05-15T01:21:23.146Z,98413.23
2018-05-15T01:23:51.459Z,98419.52
2018-05-15T01:26:19.780Z,98414.84
2018-05-15T01:28:48.101Z,98417.88
2018-05-15T01:31:16.378Z,98420.48
2018-05-15T01:33:44.737Z,98424.44
2018-05-15T01:36:13.009Z,98426.38
2018-05-15T01:38:41.271Z,98426.32
2018-05-15T01:41:09.591Z,98431.09
2018-05-15T01:43:37.888Z,98428.29
2018-05-15T01:46:06.202Z,98436.63
2018-05-15T01:48:35.363Z,98434.03
2018-05-15T01:51:03.663Z,98438.47
2018-05-15T01:53:31.954Z,98434.72
2018-05-15T01:56:00.734Z,98431.90
2018-05-15T01:58:29.040Z,98429.41
2018-05-15T02:00:57.351Z,98429.53
2018-05-15T02:03:25.723Z,98427.31
2018-05-15T02:05:54.039Z,98428.14
2018-05-15T02:08:22.519Z,98428.98
2018-05-15T02:10:50.922Z,98432.77
2018-05-15T02:13:20.141Z,98432.31
2018-05-15T02:15:48.426Z,98426.24
2018-05-15T02:18:16.704Z,98420.99
2018-05-15T02:20:45.020Z,98432.21
2018-05-15T02:23:13.371Z,98428.45
2018-05-15T02:25:42.006Z,98414.67
2018-05-15T02:28:11.288Z,98427.00
2018-05-15T02:30:39.727Z,98424.33
2018-05-15T02:33:08.006Z,98423.67
2018-05-15T02:35:36.346Z,98429.89
2018-05-15T02:38:05.010Z,98432.05
2018-05-15T02:40:33.325Z,98426.91
2018-05-15T02:43:01.652Z,98426.08
2018-05-15T02:45:30.027Z,98424.09
2018-05-15T02:47:58.310Z,98422.44
2018-05-15T02:50:26.602Z,98421.78
2018-05-15T02:52:54.898Z,98425.33
2018-05-15T02:55:23.175Z,98432.22
2018-05-15T02:57:51.560Z,98430.55
2018-05-15T03:00:19.763Z,98427.28
2018-05-15T03:02:48.115Z,98430.20
2018-05-15T03:05:16.415Z,98436.69
2018-05-15T03:07:44.695Z,98439.25
2018-05-15T03:10:13.899Z,98436.33
2018-05-15T03:12:42.177Z,98434.82
2018-05-15T03:15:10.473Z,98435.17
2018-05-15T03:17:38.751Z,98437.38
2018-05-15T03:20:07.043Z,98431.19
2018-05-15T03:22:35.329Z,98441.10
2018-05-15T03:25:04.075Z,98440.55
2018-05-15T03:27:32.366Z,98450.40
2018-05-15T03:30:00.629Z,98451.72
2018-05-15T03:32:29.636Z,98448.14
2018-05-15T03:34:57.903Z,98453.19
2018-05-15T03:37:26.174Z,98464.05
2018-05-15T03:39:54.478Z,98465.73
2018-05-15T03:42:22.754Z,98467.96
2018-05-15T03:44:51.125Z,98466.50
2018-05-15T03:47:19.394Z,98470.18
2018-05-15T03:49:47.732Z,98470.91
2018-05-15T03:52:15.989Z,98472.88
2018-05-15T03:54:45.708Z,98472.81
2018-05-15T03:57:13.971Z,98472.09
2018-05-15T03:59:42.283Z,98480.31
2018-05-15T04:02:22.312Z,98478.98
2018-05-15T04:05:02.613Z,98488.07
2018-05-15T04:07:42.689Z,98484.61
2018-05-15T04:10:10.978Z,98489.63
2018-05-15T04:12:40.170Z,98489.80
2018-05-15T04:15:08.474Z,98492.45
2018-05-15T04:17:36.745Z,98499.55
2018-05-15T04:20:05.090Z,98501.20
2018-05-15T04:22:33.367Z,98501.41
2018-05-15T04:25:01.696Z,98488.69
2018-05-15T04:27:29.975Z,98504.89
2018-05-15T04:29:58.349Z,98501.28
2018-05-15T04:32:26.663Z,98504.27
2018-05-15T04:34:54.959Z,98501.14
2018-05-15T04:37:23.275Z,98509.26
2018-05-15T04:39:51.576Z,98501.91
2018-05-15T04:42:19.851Z,98502.80
2018-05-15T04:44:48.236Z,98498.49
2018-05-15T04:47:16.499Z,98505.66
2018-05-15T04:49:44.801Z,98513.34
2018-05-15T04:52:13.117Z,98510.09
2018-05-15T04:54:41.380Z,98515.70
2018-05-15T04:57:10.415Z,98512.31
2018-05-15T04:59:38.667Z,98522.13
2018-05-15T05:02:07.190Z,98521.23
2018-05-15T05:04:35.320Z,98522.50
2018-05-15T05:07:03.612Z,98531.72
2018-05-15T05:09:31.877Z,98535.09
2018-05-15T05:12:00.270Z,98544.74
2018-05-15T05:14:28.554Z,98525.17
2018-05-15T05:16:57.045Z,98533.29
2018-05-15T05:19:27.210Z,98539.86
2018-05-15T05:21:56.913Z,98538.53
2018-05-15T05:24:25.185Z,98541.45
2018-05-15T05:26:53.513Z,98548.42
2018-05-15T05:29:22.443Z,98548.28
2018-05-15T05:31:51.355Z,98547.84
2018-05-15T05:34:19.650Z,98546.22
2018-05-15T05:36:47.999Z,98547.38
2018-05-15T05:39:16.310Z,98553.21
2018-05-15T05:41:44.581Z,98551.92
2018-05-15T05:44:12.976Z,98561.58
2018-05-15T05:46:41.163Z,98558.22
2018-05-15T05:49:09.452Z,98560.13
2018-05-15T05:51:38.827Z,98561.20
2018-05-15T05:54:07.157Z,98564.16
2018-05-15T05:56:35.486Z,98564.30
2018-05-15T05:59:03.768Z,98569.20
2018-05-15T06:01:32.030Z,98566.75
2018-05-15T06:04:00.360Z,98565.38
2018-05-15T06:06:28.673Z,98564.26
2018-05-15T06:08:56.978Z,98562.77
2018-05-15T06:11:25.236Z,98579.06
2018-05-15T06:13:53.525Z,98591.34
2018-05-15T06:16:21.794Z,98596.74
2018-05-15T06:18:50.131Z,98587.47
2018-05-15T06:21:18.430Z,98595.90
2018-05-15T06:23:46.719Z,98591.94
2018-05-15T06:26:15.044Z,98596.70
2018-05-15T06:28:43.333Z,98593.92
2018-05-15T06:31:11.618Z,98591.36
2018-05-15T06:33:39.947Z,98594.25
2018-05-15T06:36:08.245Z,98587.77
2018-05-15T06:38:36.572Z,98586.72
2018-05-15T06:41:05.696Z,98587.72
2018-05-15T06:43:34.004Z,98586.18
2018-05-15T06:46:02.313Z,98586.48
2018-05-15T06:48:30.574Z,98594.46
2018-05-15T06:50:58.883Z,98595.80
2018-05-15T06:53:27.490Z,98601.95
2018-05-15T06:55:55.794Z,98603.08
2018-05-15T06:58:24.105Z,98607.63
2018-05-15T07:00:52.454Z,98613.01
2018-05-15T07:03:20.819Z,98608.63
2018-05-15T07:05:49.113Z,98616.06
2018-05-15T07:08:17.482Z,98595.82
2018-05-15T07:10:45.763Z,98617.59
2018-05-15T07:13:15.428Z,98618.56
2018-05-15T07:15:46.778Z,98623.27
2018-05-15T07:18:15.154Z,98615.05
2018-05-15T07:20:43.447Z,98625.59
2018-05-15T07:23:11.734Z,98630.08
2018-05-15T07:25:40.265Z,98631.24
2018-05-15T07:28:08.572Z,98613.64
2018-05-15T07:30:36.853Z,98620.84
2018-05-15T07:33:05.154Z,98624.19
2018-05-15T07:35:33.455Z,98617.02
2018-05-15T07:38:01.756Z,98620.66
2018-05-15T07:40:30.123Z,98621.23
2018-05-15T07:42:58.434Z,98619.52
2018-05-15T07:45:26.712Z,98621.78
2018-05-15T07:47:55.015Z,98611.78
2018-05-15T07:50:23.296Z,98624.13
2018-05-15T07:52:51.564Z,98624.09
2018-05-15T07:55:19.898Z,98626.34
2018-05-15T07:57:48.197Z,98625.94
2018-05-15T08:00:16.505Z,98631.77
2018-05-15T08:02:44.834Z,98621.77
2018-05-15T08:05:13.152Z,98623.72
2018-05-15T08:07:41.644Z,98628.43
2018-05-15T08:10:10.636Z,98634.27
2018-05-15T08:12:38.908Z,98633.41
2018-05-15T08:15:07.197Z,98633.55
2018-05-15T08:17:35.546Z,98636.81
2018-05-15T08:20:03.854Z,98636.02
2018-05-15T08:22:32.136Z,98637.84
2018-05-15T08:25:02.267Z,98640.52
2018-05-15T08:27:30.503Z,98645.33
2018-05-15T08:29:58.846Z,98643.36
2018-05-15T08:32:27.110Z,98640.33
2018-05-15T08:34:55.412Z,98637.61
2018-05-15T08:37:23.772Z,98638.97
2018-05-15T08:39:54.990Z,98635.94
2018-05-15T08:42:23.311Z,98637.11
2018-05-15T08:44:51.610Z,98632.80
2018-05-15T08:47:19.997Z,98640.67
2018-05-15T08:49:48.283Z,98634.10
2018-05-15T08:52:16.556Z,98645.06
2018-05-15T08:54:44.895Z,98646.84
2018-05-15T08:57:13.230Z,98649.27
2018-05-15T08:59:41.557Z,98651.70
2018-05-15T09:02:09.875Z,98660.18
2018-05-15T09:04:38.207Z,98660.34
2018-05-15T09:07:06.493Z,98660.95
2018-05-15T09:09:35.133Z,98670.21
2018-05-15T09:12:04.400Z,98670.21
2018-05-15T09:14:32.669Z,98672.54
2018-05-15T09:17:00.963Z,98661.75
2018-05-15T09:19:29.265Z,98671.45
2018-05-15T09:21:57.614Z,98673.89
2018-05-15T09:24:26.012Z,98671.61
2018-05-15T09:26:54.416Z,98667.95
2018-05-15T09:29:22.823Z,98657.33
2018-05-15T09:31:51.125Z,98667.16
2018-05-15T09:34:19.384Z,98666.48
2018-05-15T09:36:47.775Z,98660.64
2018-05-15T09:39:17.083Z,98666.02
2018-05-15T09:41:46.407Z,98676.31
2018-05-15T09:44:14.766Z,98673.83
2018-05-15T09:46:43.120Z,98656.52
2018-05-15T09:49:12.494Z,98672.19
2018-05-15T09:51:40.791Z,98660.66
2018-05-15T09:54:09.200Z,98657.83
2018-05-15T09:56:38.196Z,98659.44
2018-05-15T09:59:06.531Z,98666.15
2018-05-15T10:01:35.647Z,98669.02
2018-05-15T10:04:04.052Z,98648.94
2018-05-15T10:06:32.593Z,98665.33
2018-05-15T10:09:00.838Z,98660.77
2018-05-15T10:11:29.822Z,98663.61
2018-05-15T10:13:58.127Z,98658.36
2018-05-15T10:16:26.795Z,98662.74
2018-05-15T10:18:55.162Z,98658.87
2018-05-15T10:21:23.442Z,98672.25
2018-05-15T10:23:51.768Z,98660.27
2018-05-15T10:26:20.141Z,98668.05
2018-05-15T10:28:48.454Z,98675.74
2018-05-15T10:31:16.729Z,98683.82
2018-05-15T10:33:45.038Z,98680.55
2018-05-15T10:36:13.342Z,98677.05
2018-05-15T10:38:41.717Z,98683.56
2018-05-15T10:41:10.363Z,98686.77
2018-05-15T10:43:38.837Z,98678.56
2018-05-15T10:46:07.116Z,98681.22
2018-05-15T10:48:35.407Z,98683.73
2018-05-15T10:51:03.777Z,98676.65
2018-05-15T10:53:32.106Z,98689.29
2018-05-15T10:56:00.416Z,98685.75
2018-05-15T10:58:29.021Z,98681.39
2018-05-15T11:00:57.344Z,98680.86
2018-05-15T11:03:25.606Z,98677.85
2018-05-15T11:05:53.967Z,98673.79
2018-05-15T11:08:22.286Z,98666.69
2018-05-15T11:10:50.706Z,98666.24
2018-05-15T11:13:18.975Z,98661.87
2018-05-15T11:15:47.266Z,98666.50
2018-05-15T11:18:27.363Z,98665.89
2018-05-15T11:21:07.934Z,98669.61
2018-05-15T11:23:48.197Z,98681.15
2018-05-15T11:26:16.529Z,98675.50
2018-05-15T11:28:45.144Z,98671.29
2018-05-15T11:31:13.944Z,98668.42
2018-05-15T11:33:42.273Z,98670.52
2018-05-15T11:36:11.656Z,98673.29
2018-05-15T11:38:42.797Z,98663.19
2018-05-15T11:41:11.560Z,98668.36
2018-05-15T11:43:40.172Z,98670.22
2018-05-15T11:46:08.550Z,98667.95
2018-05-15T11:48:37.211Z,98662.27
2018-05-15T11:51:06.492Z,98649.21
2018-05-15T11:53:34.500Z,98661.61
2018-05-15T11:56:02.958Z,98670.61
2018-05-15T11:58:31.585Z,98668.84
2018-05-15T12:01:00.034Z,98669.12
2018-05-15T12:03:28.320Z,98670.95
2018-05-15T12:05:56.617Z,98663.16
2018-05-15T12:08:24.971Z,98661.06
2018-05-15T12:10:53.228Z,98656.16
2018-05-15T12:13:22.931Z,98659.94
2018-05-15T12:15:51.270Z,98662.54
2018-05-15T12:18:19.921Z,98659.60
2018-05-15T12:20:48.527Z,98642.73
2018-05-15T12:23:16.850Z,98641.31
2018-05-15T12:25:45.114Z,98652.50
2018-05-15T12:28:14.707Z,98659.48
2018-05-15T12:30:44.039Z,98647.97
2018-05-15T12:33:12.443Z,98653.34
2018-05-15T12:35:40.721Z,98657.31
2018-05-15T12:38:09.021Z,98658.23
2018-05-15T12:40:37.329Z,98611.70
2018-05-15T12:43:05.614Z,98652.14
2018-05-15T12:45:33.932Z,98651.16
2018-05-15T12:48:02.265Z,98651.23
2018-05-15T12:50:30.660Z,98644.16
2018-05-15T12:52:58.923Z,98643.73
2018-05-15T12:55:27.214Z,98637.73
2018-05-15T12:57:55.587Z,98635.23
2018-05-15T13:00:24.174Z,98642.02
2018-05-15T13:02:52.503Z,98649.66
2018-05-15T13:05:20.953Z,98645.39
2018-05-15T13:07:49.270Z,98643.72
2018-05-15T13:10:17.621Z,98633.92
2018-05-15T13:12:45.961Z,98631.80
2018-05-15T13:15:14.346Z,98630.45
2018-05-15T13:17:42.729Z,98628.03
2018-05-15T13:20:11.053Z,98620.87
2018-05-15T13:22:39.333Z,98626.32
2018-05-15T13:25:07.642Z,98623.23
2018-05-15T13:27:35.917Z,98614.99
2018-05-15T13:30:04.911Z,98612.13
2018-05-15T13:32:33.292Z,98605.62
2018-05-15T13:35:01.721Z,98614.02
2018-05-15T13:37:30.030Z,98611.38
2018-05-15T13:39:58.326Z,98615.77
2018-05-15T13:42:26.602Z,98603.19
2018-05-15T13:44:54.895Z,98531.23
2018-05-15T13:47:23.254Z,98613.78
2018-05-15T13:49:51.603Z,98613.42
2018-05-15T13:52:19.934Z,98616.23
2018-05-15T13:54:48.353Z,98616.00
2018-05-15T13:57:16.616Z,98617.51
2018-05-15T13:59:44.921Z,98613.95
2018-05-15T14:02:13.288Z,98615.83
2018-05-15T14:04:41.579Z,98611.67
2018-05-15T14:07:10.800Z,98613.98
2018-05-15T14:09:39.151Z,98606.11
2018-05-15T14:12:07.683Z,98610.89
2018-05-15T14:14:36.162Z,98606.89
2018-05-15T14:17:05.056Z,98591.71
2018-05-15T14:19:33.357Z,98603.05
2018-05-15T14:22:01.715Z,98600.95
2018-05-15T14:24:31.252Z,98603.06
2018-05-15T14:26:59.582Z,98601.09
2018-05-15T14:29:28.239Z,98592.31
2018-05-15T14:31:56.587Z,98594.58
2018-05-15T14:34:24.892Z,98591.77
2018-05-15T14:36:53.185Z,98590.50
2018-05-15T14:39:21.617Z,98596.40
2018-05-15T14:42:01.553Z,98597.88
2018-05-15T14:44:29.859Z,98592.25
2018-05-15T14:46:58.158Z,98596.45
2018-05-15T14:49:26.568Z,98600.70
2018-05-15T14:51:54.849Z,98598.95
2018-05-15T14:54:23.435Z,98600.28
2018-05-15T14:56:51.806Z,98593.99
2018-05-15T14:59:20.110Z,98588.98
2018-05-15T15:01:48.399Z,98589.86
2018-05-15T15:04:16.719Z,98600.20
2018-05-15T15:06:45.081Z,98598.76
2018-05-15T15:09:13.394Z,98593.19
2018-05-15T15:11:42.202Z,98582.97
2018-05-15T15:14:10.810Z,98591.66
2018-05-15T15:16:39.079Z,98592.47
2018-05-15T15:19:07.350Z,98583.00
2018-05-15T15:21:35.704Z,98544.90
2018-05-15T15:24:04.353Z,98566.36
2018-05-15T15:26:32.662Z,98563.77
2018-05-15T15:29:00.941Z,98556.75
2018-05-15T15:31:29.246Z,98549.98
2018-05-15T15:33:57.515Z,98553.76
2018-05-15T15:36:26.654Z,98564.68
2018-05-15T15:38:54.958Z,98562.30
2018-05-15T15:41:23.263Z,98558.91
2018-05-15T15:43:51.565Z,98559.83
2018-05-15T15:46:19.923Z,98552.59
2018-05-15T15:48:48.923Z,98551.81
2018-05-15T15:51:17.255Z,98548.55
2018-05-15T15:53:45.587Z,98556.33
2018-05-15T15:56:13.908Z,98555.63
2018-05-15T15:58:42.243Z,98560.20
2018-05-15T16:01:10.526Z,98553.39
2018-05-15T16:03:38.813Z,98559.98
2018-05-15T16:06:07.234Z,98559.55
2018-05-15T16:08:35.525Z,98554.56
2018-05-15T16:11:04.462Z,98554.22
2018-05-15T16:13:32.770Z,98555.13
2018-05-15T16:16:01.057Z,98553.75
2018-05-15T16:18:29.355Z,98560.88
2018-05-15T16:20:57.629Z,98559.24
2018-05-15T16:23:25.930Z,98558.16
2018-05-15T16:25:54.621Z,98565.30
2018-05-15T16:28:23.196Z,98564.03
2018-05-15T16:30:51.473Z,98560.91
2018-05-15T16:33:25.285Z,98552.58
2018-05-15T16:35:54.381Z,98561.37
2018-05-15T16:38:24.353Z,98562.74
2018-05-15T16:40:53.316Z,98572.20
2018-05-15T16:43:21.747Z,98570.47
2018-05-15T16:45:50.772Z,98571.84
2018-05-15T16:48:19.156Z,98570.73
2018-05-15T16:50:47.419Z,98569.78
2018-05-15T16:53:15.763Z,98550.34
2018-05-15T16:55:44.058Z,98569.84
2018-05-15T16:58:12.385Z,98570.08
2018-05-15T17:00:40.688Z,98570.44
2018-05-15T17:03:10.193Z,98570.55
2018-05-15T17:05:38.527Z,98568.95
2018-05-15T17:08:06.876Z,98564.89
2018-05-15T17:10:35.194Z,98572.47
2018-05-15T17:13:03.437Z,98580.75
2018-05-15T17:15:32.644Z,98574.26
2018-05-15T17:18:00.879Z,98491.31
2018-05-15T17:20:29.221Z,98580.92
2018-05-15T17:22:57.498Z,98576.26
2018-05-15T17:25:25.896Z,98578.14
2018-05-15T17:27:54.091Z,98577.20
2018-05-15T17:30:22.476Z,98577.05
2018-05-15T17:32:50.811Z,98575.41
2018-05-15T17:35:19.099Z,98579.22
2018-05-15T17:37:47.359Z,98575.80
2018-05-15T17:40:15.724Z,98583.05
2018-05-15T17:42:44.031Z,98583.27
2018-05-15T17:45:12.423Z,98580.67
2018-05-15T17:47:40.686Z,98586.66
2018-05-15T17:50:09.000Z,98585.41
2018-05-15T17:52:37.311Z,98588.31
2018-05-15T17:55:05.581Z,98596.35
2018-05-15T17:57:33.888Z,98599.37
2018-05-15T18:00:02.292Z,98600.81
2018-05-15T18:02:30.575Z,98596.96
2018-05-15T18:04:58.892Z,98601.76
2018-05-15T18:07:27.228Z,98601.06
2018-05-15T18:09:55.496Z,98601.27
2018-05-15T18:12:23.789Z,98605.14
2018-05-15T18:14:52.136Z,98604.17
2018-05-15T18:17:20.482Z,98603.00
2018-05-15T18:19:49.367Z,98581.67
2018-05-15T18:22:17.667Z,98602.29
2018-05-15T18:24:46.029Z,98597.74
2018-05-15T18:27:15.028Z,98598.22
2018-05-15T18:29:43.298Z,98600.83
2018-05-15T18:32:11.994Z,98605.11
2018-05-15T18:34:40.609Z,98588.73
2018-05-15T18:37:09.793Z,98593.14
2018-05-15T18:39:38.141Z,98605.40
2018-05-15T18:42:06.416Z,98595.25
2018-05-15T18:44:34.756Z,98604.86
2018-05-15T18:47:03.083Z,98605.19
2018-05-15T18:49:31.608Z,98605.98
2018-05-15T18:51:59.963Z,98606.02
2018-05-15T18:54:28.338Z,98603.77
2018-05-15T18:56:56.683Z,98609.78
2018-05-15T18:59:24.973Z,98612.72
2018-05-15T19:01:54.132Z,98615.73
2018-05-15T19:04:22.463Z,98622.61
2018-05-15T19:06:50.857Z,98617.82
2018-05-15T19:09:19.125Z,98615.38
2018-05-15T19:11:47.440Z,98617.73
2018-05-15T19:14:15.766Z,98623.39
2018-05-15T19:16:44.032Z,98621.34
2018-05-15T19:19:12.427Z,98623.58
2018-05-15T19:21:40.688Z,98630.70
2018-05-15T19:24:09.011Z,98633.08
2018-05-15T19:26:37.361Z,98632.41
2018-05-15T19:29:05.681Z,98617.59
2018-05-15T19:31:37.826Z,98627.47
2018-05-15T19:34:11.862Z,98630.23
2018-05-15T19:36:45.778Z,98639.49
2018-05-15T19:39:14.244Z,98632.14
2018-05-15T19:41:42.480Z,98639.64
2018-05-15T19:44:10.828Z,98646.83
2018-05-15T19:46:39.129Z,98648.54
2018-05-15T19:49:07.408Z,98665.98
2018-05-15T19:51:35.733Z,98702.97
2018-05-15T19:54:05.060Z,98701.16
2018-05-15T19:56:33.750Z,98717.81
2018-05-15T19:59:02.013Z,98722.80
2018-05-15T20:01:31.133Z,98716.10
2018-05-15T20:03:59.427Z,98722.91
2018-05-15T20:06:27.880Z,98718.73
2018-05-15T20:08:56.144Z,98728.34
2018-05-15T20:11:24.704Z,98738.19
2018-05-15T20:13:52.983Z,98737.66
2018-05-15T20:16:21.293Z,98735.77
2018-05-15T20:18:49.572Z,98735.65
2018-05-15T20:21:17.890Z,98733.97
2018-05-15T20:23:46.249Z,98741.38
2018-05-15T20:26:14.520Z,98741.22
2018-05-15T20:28:42.818Z,98750.16
2018-05-15T20:31:11.130Z,98746.45
2018-05-15T20:33:39.404Z,98746.98
2018-05-15T20:36:08.615Z,98737.20
2018-05-15T20:38:36.896Z,98729.84
2018-05-15T20:41:05.183Z,98723.32
2018-05-15T20:43:33.531Z,98723.55
2018-05-15T20:46:01.789Z,98722.77
2018-05-15T20:48:30.580Z,98722.56
2018-05-15T20:50:58.847Z,98721.44
2018-05-15T20:53:27.126Z,98714.66
2018-05-15T20:55:56.444Z,98709.86
2018-05-15T20:58:24.797Z,98706.79
2018-05-15T21:00:53.659Z,98709.98
2018-05-15T21:03:21.986Z,98710.42
2018-05-15T21:05:50.279Z,98705.70
2018-05-15T21:08:18.583Z,98700.06
2018-05-15T21:10:46.944Z,98694.67
2018-05-15T21:13:15.233Z,98696.95
2018-05-15T21:15:43.556Z,98687.27
2018-05-15T21:18:11.905Z,98702.83
2018-05-15T21:20:40.175Z,98699.99
2018-05-15T21:23:08.485Z,98688.58
2018-05-15T21:25:36.844Z,98698.20
2018-05-15T21:28:05.189Z,98692.59
2018-05-15T21:30:33.543Z,98699.50
2018-05-15T21:33:01.829Z,98696.73
2018-05-15T21:35:30.115Z,98701.01
2018-05-15T21:37:58.377Z,98701.12
2018-05-15T21:40:26.683Z,98703.34
2018-05-15T21:42:54.946Z,98699.36
2018-05-15T21:45:23.264Z,98691.41
2018-05-15T21:47:51.693Z,98691.73
2018-05-15T21:50:19.981Z,98697.82
2018-05-15T21:52:48.310Z,98693.59
2018-05-15T21:55:16.550Z,98690.98
2018-05-15T21:57:44.802Z,98691.83
2018-05-15T22:00:13.114Z,98698.09
2018-05-15T22:02:41.437Z,98702.55
2018-05-15T22:05:11.260Z,98695.96
2018-05-15T22:07:40.077Z,98695.03
2018-05-15T22:10:09.136Z,98697.53
2018-05-15T22:12:49.198Z,98695.50
2018-05-15T22:15:29.142Z,98697.72
2018-05-15T22:18:09.204Z,98694.64
2018-05-15T22:20:49.402Z,98694.02
2018-05-15T22:23:17.116Z,98696.52
2018-05-15T22:25:45.491Z,98691.55
2018-05-15T22:28:13.874Z,98686.41
2018-05-15T22:30:42.150Z,98695.51
2018-05-15T22:33:10.454Z,98694.24
2018-05-15T22:35:38.733Z,98692.03
2018-05-15T22:38:07.023Z,98694.79
2018-05-15T22:40:35.282Z,98678.44
2018-05-15T22:43:03.608Z,98682.98
2018-05-15T22:45:31.866Z,98683.84
2018-05-15T22:48:00.123Z,98683.95
2018-05-15T22:50:28.397Z,98680.19
2018-05-15T22:52:56.663Z,98675.57
2018-05-15T22:55:24.973Z,98678.06
2018-05-15T22:57:53.250Z,98671.05
2018-05-15T23:00:21.549Z,98665.28
2018-05-15T23:02:49.936Z,98663.66
2018-05-15T23:05:18.207Z,98664.48
2018-05-15T23:07:47.239Z,98664.74
2018-05-15T23:10:15.563Z,98663.34
2018-05-15T23:12:43.856Z,98664.50
2018-05-15T23:15:12.143Z,98664.42
2018-05-15T23:17:40.420Z,98661.39
2018-05-15T23:20:08.698Z,98659.50
2018-05-15T23:22:43.856Z,98654.23
2018-05-15T23:25:12.171Z,98651.84
2018-05-15T23:27:40.487Z,98648.83
2018-05-15T23:30:09.576Z,98653.31
2018-05-15T23:32:37.962Z,98646.17
2018-05-15T23:35:06.243Z,98641.96
2018-05-15T23:37:34.542Z,98636.89
2018-05-15T23:40:02.827Z,98631.52
2018-05-15T23:42:31.146Z,98631.59
2018-05-15T23:44:59.676Z,98636.55
2018-05-15T23:47:27.987Z,98640.23
2018-05-15T23:49:56.235Z,98646.06
2018-05-15T23:52:31.849Z,98639.00
2018-05-15T23:55:00.088Z,98640.16
2018-05-15T23:57:28.436Z,98638.20
2018-05-15T23:59:56.772Z,98638.00
